sensor_id;sensor_type;location;lat;lon;timestamp;P1;durP1;ratioP1;P2;durP2;ratioP2
71172;SDS011;58875;51.996;4.504;2023-05-07T00:01:28;22.14;;;22.06;;
71172;SDS011;58875;51.996;4.504;2023-05-07T00:03:54;22.72;;;22.63;;
71172;SDS011;58875;51.996;4.504;2023-05-07T00:06:19;22.21;;;22.14;;
71172;SDS011;58875;51.996;4.504;2023-05-07T00:08:45;22.89;;;22.74;;
71172;SDS011;58875;51.996;4.504;2023-05-07T00:11:10;23.29;;;23.13;;
71172;SDS011;58875;51.996;4.504;2023-05-07T00:13:36;24.76;;;24.43;;
71172;SDS011;58875;51.996;4.504;2023-05-07T00:16:02;25.54;;;24.97;;
71172;SDS011;58875;51.996;4.504;2023-05-07T00:18:28;26.22;;;25.56;;
71172;SDS011;58875;51.996;4.504;2023-05-07T00:20:53;25.45;;;24.90;;
71172;SDS011;58875;51.996;4.504;2023-05-07T00:23:19;26.48;;;25.62;;
71172;SDS011;58875;51.996;4.504;2023-05-07T00:25:44;25.61;;;25.10;;
71172;SDS011;58875;51.996;4.504;2023-05-07T00:28:10;25.84;;;25.33;;
71172;SDS011;58875;51.996;4.504;2023-05-07T00:30:36;25.90;;;25.64;;
71172;SDS011;58875;51.996;4.504;2023-05-07T00:33:01;24.64;;;24.50;;
71172;SDS011;58875;51.996;4.504;2023-05-07T00:35:28;25.71;;;25.58;;
71172;SDS011;58875;51.996;4.504;2023-05-07T00:37:54;25.20;;;25.03;;
71172;SDS011;58875;51.996;4.504;2023-05-07T00:40:20;25.77;;;25.65;;
71172;SDS011;58875;51.996;4.504;2023-05-07T00:42:46;25.35;;;25.28;;
71172;SDS011;58875;51.996;4.504;2023-05-07T00:45:15;25.44;;;25.11;;
71172;SDS011;58875;51.996;4.504;2023-05-07T00:47:41;25.44;;;25.20;;
71172;SDS011;58875;51.996;4.504;2023-05-07T00:50:08;26.07;;;25.55;;
71172;SDS011;58875;51.996;4.504;2023-05-07T00:52:35;26.24;;;25.85;;
71172;SDS011;58875;51.996;4.504;2023-05-07T00:55:04;25.70;;;25.57;;
71172;SDS011;58875;51.996;4.504;2023-05-07T00:57:33;24.86;;;24.79;;
71172;SDS011;58875;51.996;4.504;2023-05-07T01:00:04;25.42;;;25.13;;
71172;SDS011;58875;51.996;4.504;2023-05-07T01:02:30;24.90;;;24.48;;
71172;SDS011;58875;51.996;4.504;2023-05-07T01:04:56;25.82;;;25.46;;
71172;SDS011;58875;51.996;4.504;2023-05-07T01:07:22;26.06;;;25.69;;
71172;SDS011;58875;51.996;4.504;2023-05-07T01:09:48;24.46;;;24.36;;
71172;SDS011;58875;51.996;4.504;2023-05-07T01:12:15;25.62;;;25.60;;
71172;SDS011;58875;51.996;4.504;2023-05-07T01:14:41;25.06;;;24.91;;
71172;SDS011;58875;51.996;4.504;2023-05-07T01:17:07;25.47;;;24.96;;
71172;SDS011;58875;51.996;4.504;2023-05-07T01:19:33;24.68;;;24.18;;
71172;SDS011;58875;51.996;4.504;2023-05-07T01:22:04;24.51;;;24.36;;
71172;SDS011;58875;51.996;4.504;2023-05-07T01:24:33;24.16;;;23.92;;
71172;SDS011;58875;51.996;4.504;2023-05-07T01:27:02;24.05;;;23.73;;
71172;SDS011;58875;51.996;4.504;2023-05-07T01:29:27;23.54;;;23.46;;
71172;SDS011;58875;51.996;4.504;2023-05-07T01:31:54;24.33;;;24.09;;
71172;SDS011;58875;51.996;4.504;2023-05-07T01:34:23;23.70;;;23.63;;
71172;SDS011;58875;51.996;4.504;2023-05-07T01:36:52;24.44;;;24.34;;
71172;SDS011;58875;51.996;4.504;2023-05-07T01:39:22;24.37;;;24.23;;
71172;SDS011;58875;51.996;4.504;2023-05-07T01:41:50;24.47;;;24.29;;
71172;SDS011;58875;51.996;4.504;2023-05-07T01:44:16;24.13;;;24.00;;
71172;SDS011;58875;51.996;4.504;2023-05-07T01:46:43;24.61;;;24.45;;
71172;SDS011;58875;51.996;4.504;2023-05-07T01:49:10;24.11;;;24.06;;
71172;SDS011;58875;51.996;4.504;2023-05-07T01:51:35;24.39;;;24.23;;
71172;SDS011;58875;51.996;4.504;2023-05-07T01:54:01;24.18;;;24.12;;
71172;SDS011;58875;51.996;4.504;2023-05-07T01:56:27;25.23;;;24.80;;
71172;SDS011;58875;51.996;4.504;2023-05-07T01:58:55;26.27;;;25.63;;
71172;SDS011;58875;51.996;4.504;2023-05-07T02:01:20;25.27;;;25.08;;
71172;SDS011;58875;51.996;4.504;2023-05-07T02:03:46;24.91;;;24.75;;
71172;SDS011;58875;51.996;4.504;2023-05-07T02:06:11;25.31;;;25.29;;
71172;SDS011;58875;51.996;4.504;2023-05-07T02:08:37;25.77;;;25.69;;
71172;SDS011;58875;51.996;4.504;2023-05-07T02:11:02;26.32;;;26.25;;
71172;SDS011;58875;51.996;4.504;2023-05-07T02:13:29;25.76;;;25.76;;
71172;SDS011;58875;51.996;4.504;2023-05-07T02:15:57;26.82;;;26.63;;
71172;SDS011;58875;51.996;4.504;2023-05-07T02:18:22;26.74;;;26.54;;
71172;SDS011;58875;51.996;4.504;2023-05-07T02:20:48;27.03;;;26.93;;
71172;SDS011;58875;51.996;4.504;2023-05-07T02:23:14;27.36;;;27.01;;
71172;SDS011;58875;51.996;4.504;2023-05-07T02:25:39;26.16;;;26.15;;
71172;SDS011;58875;51.996;4.504;2023-05-07T02:28:05;26.67;;;26.67;;
71172;SDS011;58875;51.996;4.504;2023-05-07T02:30:31;27.60;;;27.53;;
71172;SDS011;58875;51.996;4.504;2023-05-07T02:32:56;27.90;;;27.86;;
71172;SDS011;58875;51.996;4.504;2023-05-07T02:35:23;26.71;;;26.71;;
71172;SDS011;58875;51.996;4.504;2023-05-07T02:37:50;27.97;;;27.97;;
71172;SDS011;58875;51.996;4.504;2023-05-07T02:40:16;27.32;;;27.23;;
71172;SDS011;58875;51.996;4.504;2023-05-07T02:42:42;27.44;;;27.42;;
71172;SDS011;58875;51.996;4.504;2023-05-07T02:45:07;27.90;;;27.89;;
71172;SDS011;58875;51.996;4.504;2023-05-07T02:47:34;27.40;;;27.36;;
71172;SDS011;58875;51.996;4.504;2023-05-07T02:49:59;28.42;;;28.42;;
71172;SDS011;58875;51.996;4.504;2023-05-07T02:52:26;27.85;;;27.82;;
71172;SDS011;58875;51.996;4.504;2023-05-07T02:54:52;27.88;;;27.88;;
71172;SDS011;58875;51.996;4.504;2023-05-07T02:57:18;28.71;;;28.68;;
71172;SDS011;58875;51.996;4.504;2023-05-07T02:59:44;27.70;;;27.64;;
71172;SDS011;58875;51.996;4.504;2023-05-07T03:02:09;27.41;;;27.35;;
71172;SDS011;58875;51.996;4.504;2023-05-07T03:04:35;27.05;;;27.02;;
71172;SDS011;58875;51.996;4.504;2023-05-07T03:07:01;27.73;;;27.73;;
71172;SDS011;58875;51.996;4.504;2023-05-07T03:09:26;27.28;;;27.28;;
71172;SDS011;58875;51.996;4.504;2023-05-07T03:11:52;27.63;;;27.63;;
71172;SDS011;58875;51.996;4.504;2023-05-07T03:14:18;26.02;;;26.02;;
71172;SDS011;58875;51.996;4.504;2023-05-07T03:16:46;27.00;;;27.00;;
71172;SDS011;58875;51.996;4.504;2023-05-07T03:19:11;26.86;;;26.86;;
71172;SDS011;58875;51.996;4.504;2023-05-07T03:21:37;26.29;;;26.29;;
71172;SDS011;58875;51.996;4.504;2023-05-07T03:24:02;25.46;;;25.46;;
71172;SDS011;58875;51.996;4.504;2023-05-07T03:26:28;25.23;;;25.22;;
71172;SDS011;58875;51.996;4.504;2023-05-07T03:28:54;24.84;;;24.83;;
71172;SDS011;58875;51.996;4.504;2023-05-07T03:31:20;25.29;;;25.29;;
71172;SDS011;58875;51.996;4.504;2023-05-07T03:33:52;25.01;;;25.01;;
71172;SDS011;58875;51.996;4.504;2023-05-07T03:36:19;24.67;;;24.67;;
71172;SDS011;58875;51.996;4.504;2023-05-07T03:38:46;23.92;;;23.92;;
71172;SDS011;58875;51.996;4.504;2023-05-07T03:41:12;23.71;;;23.63;;
71172;SDS011;58875;51.996;4.504;2023-05-07T03:43:38;23.75;;;23.75;;
71172;SDS011;58875;51.996;4.504;2023-05-07T03:46:04;23.37;;;23.37;;
71172;SDS011;58875;51.996;4.504;2023-05-07T03:48:30;23.64;;;23.64;;
71172;SDS011;58875;51.996;4.504;2023-05-07T03:50:56;23.44;;;23.41;;
71172;SDS011;58875;51.996;4.504;2023-05-07T03:53:22;23.00;;;23.00;;
71172;SDS011;58875;51.996;4.504;2023-05-07T03:55:48;23.36;;;23.36;;
71172;SDS011;58875;51.996;4.504;2023-05-07T03:58:14;23.64;;;23.61;;
71172;SDS011;58875;51.996;4.504;2023-05-07T04:00:40;23.19;;;23.18;;
71172;SDS011;58875;51.996;4.504;2023-05-07T04:03:06;22.97;;;22.97;;
71172;SDS011;58875;51.996;4.504;2023-05-07T04:05:32;22.85;;;22.85;;
71172;SDS011;58875;51.996;4.504;2023-05-07T04:07:58;22.76;;;22.76;;
71172;SDS011;58875;51.996;4.504;2023-05-07T04:10:24;22.59;;;22.58;;
71172;SDS011;58875;51.996;4.504;2023-05-07T04:12:50;23.28;;;23.22;;
71172;SDS011;58875;51.996;4.504;2023-05-07T04:15:16;22.71;;;22.71;;
71172;SDS011;58875;51.996;4.504;2023-05-07T04:17:41;22.74;;;22.74;;
71172;SDS011;58875;51.996;4.504;2023-05-07T04:20:13;22.71;;;22.66;;
71172;SDS011;58875;51.996;4.504;2023-05-07T04:22:40;23.07;;;23.07;;
71172;SDS011;58875;51.996;4.504;2023-05-07T04:25:07;23.18;;;23.18;;
71172;SDS011;58875;51.996;4.504;2023-05-07T04:27:34;23.02;;;23.02;;
71172;SDS011;58875;51.996;4.504;2023-05-07T04:30:00;22.84;;;22.84;;
71172;SDS011;58875;51.996;4.504;2023-05-07T04:32:27;22.35;;;22.35;;
71172;SDS011;58875;51.996;4.504;2023-05-07T04:34:54;21.96;;;21.96;;
71172;SDS011;58875;51.996;4.504;2023-05-07T04:37:20;21.69;;;21.69;;
71172;SDS011;58875;51.996;4.504;2023-05-07T04:39:46;21.66;;;21.66;;
71172;SDS011;58875;51.996;4.504;2023-05-07T04:42:15;21.32;;;21.32;;
71172;SDS011;58875;51.996;4.504;2023-05-07T04:44:42;20.58;;;20.58;;
71172;SDS011;58875;51.996;4.504;2023-05-07T04:47:09;20.50;;;20.50;;
71172;SDS011;58875;51.996;4.504;2023-05-07T04:49:35;20.58;;;20.58;;
71172;SDS011;58875;51.996;4.504;2023-05-07T04:52:00;20.56;;;20.56;;
71172;SDS011;58875;51.996;4.504;2023-05-07T04:54:26;21.06;;;21.06;;
71172;SDS011;58875;51.996;4.504;2023-05-07T04:56:51;20.53;;;20.53;;
71172;SDS011;58875;51.996;4.504;2023-05-07T04:59:17;20.22;;;20.22;;
71172;SDS011;58875;51.996;4.504;2023-05-07T05:01:43;20.94;;;20.94;;
71172;SDS011;58875;51.996;4.504;2023-05-07T05:04:08;20.77;;;20.77;;
71172;SDS011;58875;51.996;4.504;2023-05-07T05:06:35;20.74;;;20.74;;
71172;SDS011;58875;51.996;4.504;2023-05-07T05:09:00;20.73;;;20.73;;
71172;SDS011;58875;51.996;4.504;2023-05-07T05:11:26;20.53;;;20.53;;
71172;SDS011;58875;51.996;4.504;2023-05-07T05:13:51;20.69;;;20.69;;
71172;SDS011;58875;51.996;4.504;2023-05-07T05:16:17;20.65;;;20.65;;
71172;SDS011;58875;51.996;4.504;2023-05-07T05:18:42;20.35;;;20.35;;
71172;SDS011;58875;51.996;4.504;2023-05-07T05:21:08;20.21;;;20.21;;
71172;SDS011;58875;51.996;4.504;2023-05-07T05:23:33;19.26;;;19.26;;
71172;SDS011;58875;51.996;4.504;2023-05-07T05:25:59;19.65;;;19.65;;
71172;SDS011;58875;51.996;4.504;2023-05-07T05:28:24;19.36;;;19.36;;
71172;SDS011;58875;51.996;4.504;2023-05-07T05:30:50;19.29;;;19.29;;
71172;SDS011;58875;51.996;4.504;2023-05-07T05:33:15;18.76;;;18.76;;
71172;SDS011;58875;51.996;4.504;2023-05-07T05:35:42;18.97;;;18.97;;
71172;SDS011;58875;51.996;4.504;2023-05-07T05:38:08;19.61;;;19.61;;
71172;SDS011;58875;51.996;4.504;2023-05-07T05:40:33;19.88;;;19.88;;
71172;SDS011;58875;51.996;4.504;2023-05-07T05:42:59;19.81;;;19.81;;
71172;SDS011;58875;51.996;4.504;2023-05-07T05:45:25;19.36;;;19.36;;
71172;SDS011;58875;51.996;4.504;2023-05-07T05:47:51;19.34;;;19.34;;
71172;SDS011;58875;51.996;4.504;2023-05-07T05:50:16;19.56;;;19.56;;
71172;SDS011;58875;51.996;4.504;2023-05-07T05:52:42;19.16;;;19.16;;
71172;SDS011;58875;51.996;4.504;2023-05-07T05:55:08;19.46;;;19.46;;
71172;SDS011;58875;51.996;4.504;2023-05-07T05:57:34;19.12;;;19.12;;
71172;SDS011;58875;51.996;4.504;2023-05-07T06:00:00;19.27;;;19.27;;
71172;SDS011;58875;51.996;4.504;2023-05-07T06:02:27;19.31;;;19.31;;
71172;SDS011;58875;51.996;4.504;2023-05-07T06:04:55;19.80;;;19.80;;
71172;SDS011;58875;51.996;4.504;2023-05-07T06:07:20;20.06;;;20.06;;
71172;SDS011;58875;51.996;4.504;2023-05-07T06:09:46;20.23;;;20.23;;
71172;SDS011;58875;51.996;4.504;2023-05-07T06:12:11;20.56;;;20.56;;
71172;SDS011;58875;51.996;4.504;2023-05-07T06:14:37;21.11;;;21.11;;
71172;SDS011;58875;51.996;4.504;2023-05-07T06:17:03;20.88;;;20.88;;
71172;SDS011;58875;51.996;4.504;2023-05-07T06:19:32;21.06;;;21.06;;
71172;SDS011;58875;51.996;4.504;2023-05-07T06:21:57;21.31;;;21.31;;
71172;SDS011;58875;51.996;4.504;2023-05-07T06:24:23;21.53;;;21.46;;
71172;SDS011;58875;51.996;4.504;2023-05-07T06:26:49;22.52;;;22.52;;
71172;SDS011;58875;51.996;4.504;2023-05-07T06:29:15;22.20;;;22.20;;
71172;SDS011;58875;51.996;4.504;2023-05-07T06:31:40;22.74;;;22.74;;
71172;SDS011;58875;51.996;4.504;2023-05-07T06:34:08;22.58;;;22.56;;
71172;SDS011;58875;51.996;4.504;2023-05-07T06:36:35;23.41;;;23.41;;
71172;SDS011;58875;51.996;4.504;2023-05-07T06:39:00;23.07;;;23.07;;
71172;SDS011;58875;51.996;4.504;2023-05-07T06:41:26;22.37;;;22.37;;
71172;SDS011;58875;51.996;4.504;2023-05-07T06:43:52;23.21;;;23.21;;
71172;SDS011;58875;51.996;4.504;2023-05-07T06:46:17;23.27;;;23.27;;
71172;SDS011;58875;51.996;4.504;2023-05-07T06:48:43;22.88;;;22.88;;
71172;SDS011;58875;51.996;4.504;2023-05-07T06:51:08;23.56;;;23.56;;
71172;SDS011;58875;51.996;4.504;2023-05-07T06:53:34;22.95;;;22.95;;
71172;SDS011;58875;51.996;4.504;2023-05-07T06:56:00;23.72;;;23.72;;
71172;SDS011;58875;51.996;4.504;2023-05-07T06:58:26;23.00;;;23.00;;
71172;SDS011;58875;51.996;4.504;2023-05-07T07:00:52;23.73;;;23.73;;
71172;SDS011;58875;51.996;4.504;2023-05-07T07:03:18;23.69;;;23.69;;
71172;SDS011;58875;51.996;4.504;2023-05-07T07:05:43;24.01;;;24.00;;
71172;SDS011;58875;51.996;4.504;2023-05-07T07:08:09;23.68;;;23.68;;
71172;SDS011;58875;51.996;4.504;2023-05-07T07:10:35;23.26;;;23.26;;
71172;SDS011;58875;51.996;4.504;2023-05-07T07:13:01;23.90;;;23.90;;
71172;SDS011;58875;51.996;4.504;2023-05-07T07:15:28;23.50;;;23.50;;
71172;SDS011;58875;51.996;4.504;2023-05-07T07:17:54;23.92;;;23.92;;
71172;SDS011;58875;51.996;4.504;2023-05-07T07:20:20;23.08;;;23.08;;
71172;SDS011;58875;51.996;4.504;2023-05-07T07:22:45;22.60;;;22.60;;
71172;SDS011;58875;51.996;4.504;2023-05-07T07:25:11;22.02;;;22.01;;
71172;SDS011;58875;51.996;4.504;2023-05-07T07:27:37;21.61;;;21.61;;
71172;SDS011;58875;51.996;4.504;2023-05-07T07:30:05;21.31;;;21.30;;
71172;SDS011;58875;51.996;4.504;2023-05-07T07:32:31;20.76;;;20.76;;
71172;SDS011;58875;51.996;4.504;2023-05-07T07:34:58;19.48;;;19.48;;
71172;SDS011;58875;51.996;4.504;2023-05-07T07:37:24;19.00;;;19.00;;
71172;SDS011;58875;51.996;4.504;2023-05-07T07:39:50;18.66;;;18.66;;
71172;SDS011;58875;51.996;4.504;2023-05-07T07:42:16;18.72;;;18.72;;
71172;SDS011;58875;51.996;4.504;2023-05-07T07:44:42;18.73;;;18.72;;
71172;SDS011;58875;51.996;4.504;2023-05-07T07:47:07;17.71;;;17.71;;
71172;SDS011;58875;51.996;4.504;2023-05-07T07:49:33;17.24;;;17.24;;
71172;SDS011;58875;51.996;4.504;2023-05-07T07:51:58;16.60;;;16.60;;
71172;SDS011;58875;51.996;4.504;2023-05-07T07:54:24;16.47;;;16.47;;
71172;SDS011;58875;51.996;4.504;2023-05-07T07:56:50;15.95;;;15.95;;
71172;SDS011;58875;51.996;4.504;2023-05-07T07:59:15;15.86;;;15.86;;
71172;SDS011;58875;51.996;4.504;2023-05-07T08:01:43;16.77;;;16.77;;
71172;SDS011;58875;51.996;4.504;2023-05-07T08:04:10;17.89;;;17.89;;
71172;SDS011;58875;51.996;4.504;2023-05-07T08:06:35;16.90;;;16.90;;
71172;SDS011;58875;51.996;4.504;2023-05-07T08:09:01;16.21;;;16.21;;
71172;SDS011;58875;51.996;4.504;2023-05-07T08:11:27;16.81;;;16.81;;
71172;SDS011;58875;51.996;4.504;2023-05-07T08:13:53;16.64;;;16.64;;
71172;SDS011;58875;51.996;4.504;2023-05-07T08:16:19;17.32;;;17.32;;
71172;SDS011;58875;51.996;4.504;2023-05-07T08:18:45;16.73;;;16.73;;
71172;SDS011;58875;51.996;4.504;2023-05-07T08:21:10;17.48;;;17.48;;
71172;SDS011;58875;51.996;4.504;2023-05-07T08:23:36;17.15;;;17.15;;
71172;SDS011;58875;51.996;4.504;2023-05-07T08:26:02;17.21;;;17.21;;
71172;SDS011;58875;51.996;4.504;2023-05-07T08:28:27;16.84;;;16.84;;
71172;SDS011;58875;51.996;4.504;2023-05-07T08:30:53;17.04;;;17.04;;
71172;SDS011;58875;51.996;4.504;2023-05-07T08:33:18;16.44;;;16.44;;
71172;SDS011;58875;51.996;4.504;2023-05-07T08:35:44;16.60;;;16.60;;
71172;SDS011;58875;51.996;4.504;2023-05-07T08:38:10;17.33;;;17.33;;
71172;SDS011;58875;51.996;4.504;2023-05-07T08:40:39;17.09;;;17.09;;
71172;SDS011;58875;51.996;4.504;2023-05-07T08:43:06;16.99;;;16.99;;
71172;SDS011;58875;51.996;4.504;2023-05-07T08:45:32;17.35;;;17.35;;
71172;SDS011;58875;51.996;4.504;2023-05-07T08:48:01;17.96;;;17.96;;
71172;SDS011;58875;51.996;4.504;2023-05-07T08:50:28;19.01;;;19.01;;
71172;SDS011;58875;51.996;4.504;2023-05-07T08:52:55;18.80;;;18.80;;
71172;SDS011;58875;51.996;4.504;2023-05-07T08:55:22;19.48;;;19.48;;
71172;SDS011;58875;51.996;4.504;2023-05-07T08:57:48;20.27;;;20.27;;
71172;SDS011;58875;51.996;4.504;2023-05-07T09:00:15;19.82;;;19.82;;
71172;SDS011;58875;51.996;4.504;2023-05-07T09:02:40;20.61;;;20.59;;
71172;SDS011;58875;51.996;4.504;2023-05-07T09:05:06;22.18;;;22.18;;
71172;SDS011;58875;51.996;4.504;2023-05-07T09:07:32;21.79;;;21.79;;
71172;SDS011;58875;51.996;4.504;2023-05-07T09:09:58;20.85;;;20.85;;
71172;SDS011;58875;51.996;4.504;2023-05-07T09:12:25;20.80;;;20.80;;
71172;SDS011;58875;51.996;4.504;2023-05-07T09:14:51;21.34;;;21.34;;
71172;SDS011;58875;51.996;4.504;2023-05-07T09:17:16;21.51;;;21.51;;
71172;SDS011;58875;51.996;4.504;2023-05-07T09:19:43;20.88;;;20.88;;
71172;SDS011;58875;51.996;4.504;2023-05-07T09:22:10;19.97;;;19.97;;
71172;SDS011;58875;51.996;4.504;2023-05-07T09:24:36;17.88;;;17.88;;
71172;SDS011;58875;51.996;4.504;2023-05-07T09:27:03;18.40;;;18.40;;
71172;SDS011;58875;51.996;4.504;2023-05-07T09:29:30;17.98;;;17.98;;
71172;SDS011;58875;51.996;4.504;2023-05-07T09:32:03;15.74;;;15.74;;
71172;SDS011;58875;51.996;4.504;2023-05-07T09:34:33;15.42;;;15.42;;
71172;SDS011;58875;51.996;4.504;2023-05-07T09:37:02;17.07;;;17.07;;
71172;SDS011;58875;51.996;4.504;2023-05-07T09:39:42;19.11;;;19.10;;
71172;SDS011;58875;51.996;4.504;2023-05-07T09:42:14;19.92;;;19.92;;
71172;SDS011;58875;51.996;4.504;2023-05-07T09:44:40;20.68;;;20.68;;
71172;SDS011;58875;51.996;4.504;2023-05-07T09:47:08;20.97;;;20.94;;
71172;SDS011;58875;51.996;4.504;2023-05-07T09:49:35;21.04;;;21.04;;
71172;SDS011;58875;51.996;4.504;2023-05-07T09:52:03;19.32;;;19.32;;
71172;SDS011;58875;51.996;4.504;2023-05-07T09:54:32;19.30;;;19.30;;
71172;SDS011;58875;51.996;4.504;2023-05-07T09:56:58;18.21;;;18.21;;
71172;SDS011;58875;51.996;4.504;2023-05-07T09:59:27;16.91;;;16.91;;
71172;SDS011;58875;51.996;4.504;2023-05-07T10:01:56;16.14;;;16.14;;
71172;SDS011;58875;51.996;4.504;2023-05-07T10:04:24;15.76;;;15.76;;
71172;SDS011;58875;51.996;4.504;2023-05-07T10:06:51;16.54;;;16.54;;
71172;SDS011;58875;51.996;4.504;2023-05-07T10:09:18;16.51;;;16.51;;
71172;SDS011;58875;51.996;4.504;2023-05-07T10:11:44;17.08;;;17.08;;
71172;SDS011;58875;51.996;4.504;2023-05-07T10:14:13;16.82;;;16.82;;
71172;SDS011;58875;51.996;4.504;2023-05-07T10:16:39;16.88;;;16.87;;
71172;SDS011;58875;51.996;4.504;2023-05-07T10:19:07;15.53;;;15.52;;
71172;SDS011;58875;51.996;4.504;2023-05-07T10:21:37;13.17;;;13.17;;
71172;SDS011;58875;51.996;4.504;2023-05-07T10:26:45;15.01;;;15.01;;
71172;SDS011;58875;51.996;4.504;2023-05-07T10:29:20;14.51;;;14.51;;
71172;SDS011;58875;51.996;4.504;2023-05-07T10:34:49;13.50;;;13.50;;
71172;SDS011;58875;51.996;4.504;2023-05-07T10:37:20;13.32;;;13.32;;
71172;SDS011;58875;51.996;4.504;2023-05-07T10:39:47;12.51;;;12.51;;
71172;SDS011;58875;51.996;4.504;2023-05-07T10:42:13;11.84;;;11.84;;
71172;SDS011;58875;51.996;4.504;2023-05-07T10:44:40;9.81;;;9.81;;
71172;SDS011;58875;51.996;4.504;2023-05-07T10:47:09;11.32;;;11.32;;
71172;SDS011;58875;51.996;4.504;2023-05-07T10:52:23;12.63;;;12.63;;
71172;SDS011;58875;51.996;4.504;2023-05-07T10:57:38;12.01;;;12.01;;
71172;SDS011;58875;51.996;4.504;2023-05-07T11:00:38;11.87;;;11.87;;
71172;SDS011;58875;51.996;4.504;2023-05-07T11:05:25;11.31;;;11.31;;
71172;SDS011;58875;51.996;4.504;2023-05-07T11:07:56;12.35;;;12.35;;
71172;SDS011;58875;51.996;4.504;2023-05-07T11:11:09;13.14;;;13.14;;
71172;SDS011;58875;51.996;4.504;2023-05-07T11:18:56;14.25;;;14.25;;
71172;SDS011;58875;51.996;4.504;2023-05-07T11:21:31;13.88;;;13.88;;
71172;SDS011;58875;51.996;4.504;2023-05-07T11:24:09;13.55;;;13.55;;
71172;SDS011;58875;51.996;4.504;2023-05-07T11:26:42;14.39;;;14.39;;
71172;SDS011;58875;51.996;4.504;2023-05-07T11:29:11;14.27;;;14.27;;
71172;SDS011;58875;51.996;4.504;2023-05-07T11:31:38;14.53;;;14.53;;
71172;SDS011;58875;51.996;4.504;2023-05-07T11:34:04;14.40;;;14.40;;
71172;SDS011;58875;51.996;4.504;2023-05-07T11:36:32;14.59;;;14.59;;
71172;SDS011;58875;51.996;4.504;2023-05-07T11:38:58;15.36;;;15.36;;
71172;SDS011;58875;51.996;4.504;2023-05-07T11:41:32;16.20;;;16.20;;
71172;SDS011;58875;51.996;4.504;2023-05-07T11:44:04;16.32;;;16.32;;
71172;SDS011;58875;51.996;4.504;2023-05-07T11:46:29;16.31;;;16.31;;
71172;SDS011;58875;51.996;4.504;2023-05-07T11:48:55;15.30;;;15.30;;
71172;SDS011;58875;51.996;4.504;2023-05-07T11:51:25;16.29;;;16.29;;
71172;SDS011;58875;51.996;4.504;2023-05-07T11:53:51;14.34;;;14.34;;
71172;SDS011;58875;51.996;4.504;2023-05-07T11:56:18;14.62;;;14.62;;
71172;SDS011;58875;51.996;4.504;2023-05-07T11:58:44;14.06;;;14.06;;
71172;SDS011;58875;51.996;4.504;2023-05-07T12:01:12;12.53;;;12.53;;
71172;SDS011;58875;51.996;4.504;2023-05-07T12:03:42;12.32;;;12.32;;
71172;SDS011;58875;51.996;4.504;2023-05-07T12:06:11;13.15;;;13.15;;
71172;SDS011;58875;51.996;4.504;2023-05-07T12:08:41;13.49;;;13.49;;
71172;SDS011;58875;51.996;4.504;2023-05-07T12:11:08;14.18;;;14.18;;
71172;SDS011;58875;51.996;4.504;2023-05-07T12:13:39;14.43;;;14.43;;
71172;SDS011;58875;51.996;4.504;2023-05-07T12:16:06;14.73;;;14.73;;
71172;SDS011;58875;51.996;4.504;2023-05-07T12:18:33;14.78;;;14.78;;
71172;SDS011;58875;51.996;4.504;2023-05-07T12:21:00;14.90;;;14.90;;
71172;SDS011;58875;51.996;4.504;2023-05-07T12:23:26;15.03;;;15.03;;
71172;SDS011;58875;51.996;4.504;2023-05-07T12:25:53;13.66;;;13.66;;
71172;SDS011;58875;51.996;4.504;2023-05-07T12:28:18;13.45;;;13.45;;
71172;SDS011;58875;51.996;4.504;2023-05-07T12:30:46;13.21;;;13.21;;
71172;SDS011;58875;51.996;4.504;2023-05-07T12:33:16;14.06;;;14.06;;
71172;SDS011;58875;51.996;4.504;2023-05-07T12:35:43;13.91;;;13.91;;
71172;SDS011;58875;51.996;4.504;2023-05-07T12:38:13;14.08;;;14.08;;
71172;SDS011;58875;51.996;4.504;2023-05-07T12:40:45;16.06;;;16.06;;
71172;SDS011;58875;51.996;4.504;2023-05-07T12:43:16;17.44;;;17.44;;
71172;SDS011;58875;51.996;4.504;2023-05-07T12:45:42;19.02;;;19.02;;
71172;SDS011;58875;51.996;4.504;2023-05-07T12:48:10;19.33;;;19.33;;
71172;SDS011;58875;51.996;4.504;2023-05-07T12:50:36;20.15;;;20.15;;
71172;SDS011;58875;51.996;4.504;2023-05-07T12:53:03;19.91;;;19.91;;
71172;SDS011;58875;51.996;4.504;2023-05-07T12:55:42;20.45;;;20.43;;
71172;SDS011;58875;51.996;4.504;2023-05-07T12:58:17;20.84;;;20.84;;
71172;SDS011;58875;51.996;4.504;2023-05-07T13:01:05;21.60;;;21.59;;
71172;SDS011;58875;51.996;4.504;2023-05-07T13:03:33;22.29;;;22.28;;
71172;SDS011;58875;51.996;4.504;2023-05-07T13:06:04;21.98;;;21.94;;
71172;SDS011;58875;51.996;4.504;2023-05-07T13:10:58;20.96;;;20.96;;
71172;SDS011;58875;51.996;4.504;2023-05-07T13:13:32;19.89;;;19.89;;
71172;SDS011;58875;51.996;4.504;2023-05-07T13:15:59;19.38;;;19.38;;
71172;SDS011;58875;51.996;4.504;2023-05-07T13:18:26;19.76;;;19.76;;
71172;SDS011;58875;51.996;4.504;2023-05-07T13:20:54;20.09;;;20.09;;
71172;SDS011;58875;51.996;4.504;2023-05-07T13:23:20;20.91;;;20.90;;
71172;SDS011;58875;51.996;4.504;2023-05-07T13:25:46;21.31;;;21.21;;
71172;SDS011;58875;51.996;4.504;2023-05-07T13:28:12;21.99;;;21.78;;
71172;SDS011;58875;51.996;4.504;2023-05-07T13:30:38;22.28;;;22.28;;
71172;SDS011;58875;51.996;4.504;2023-05-07T13:33:05;21.57;;;21.57;;
71172;SDS011;58875;51.996;4.504;2023-05-07T13:35:32;20.31;;;20.30;;
71172;SDS011;58875;51.996;4.504;2023-05-07T13:37:58;20.14;;;20.12;;
71172;SDS011;58875;51.996;4.504;2023-05-07T13:40:23;21.13;;;21.13;;
71172;SDS011;58875;51.996;4.504;2023-05-07T13:42:49;19.55;;;19.55;;
71172;SDS011;58875;51.996;4.504;2023-05-07T13:45:16;19.60;;;19.60;;
71172;SDS011;58875;51.996;4.504;2023-05-07T13:47:43;19.77;;;19.77;;
71172;SDS011;58875;51.996;4.504;2023-05-07T13:50:09;19.97;;;19.97;;
71172;SDS011;58875;51.996;4.504;2023-05-07T13:52:36;21.02;;;20.97;;
71172;SDS011;58875;51.996;4.504;2023-05-07T13:55:03;21.36;;;21.36;;
71172;SDS011;58875;51.996;4.504;2023-05-07T13:57:29;21.01;;;21.01;;
71172;SDS011;58875;51.996;4.504;2023-05-07T13:59:54;21.36;;;21.36;;
71172;SDS011;58875;51.996;4.504;2023-05-07T14:02:20;21.79;;;21.79;;
71172;SDS011;58875;51.996;4.504;2023-05-07T14:04:46;20.10;;;20.10;;
71172;SDS011;58875;51.996;4.504;2023-05-07T14:07:11;21.58;;;21.58;;
71172;SDS011;58875;51.996;4.504;2023-05-07T14:09:37;22.74;;;22.67;;
71172;SDS011;58875;51.996;4.504;2023-05-07T14:12:02;22.95;;;22.95;;
71172;SDS011;58875;51.996;4.504;2023-05-07T14:14:28;22.67;;;22.67;;
71172;SDS011;58875;51.996;4.504;2023-05-07T14:16:54;24.00;;;24.00;;
71172;SDS011;58875;51.996;4.504;2023-05-07T14:19:19;24.69;;;24.63;;
71172;SDS011;58875;51.996;4.504;2023-05-07T14:21:45;24.83;;;24.78;;
71172;SDS011;58875;51.996;4.504;2023-05-07T14:24:10;25.18;;;25.17;;
71172;SDS011;58875;51.996;4.504;2023-05-07T14:26:36;26.21;;;26.20;;
71172;SDS011;58875;51.996;4.504;2023-05-07T14:29:02;25.90;;;25.86;;
71172;SDS011;58875;51.996;4.504;2023-05-07T14:31:28;24.44;;;24.43;;
71172;SDS011;58875;51.996;4.504;2023-05-07T14:33:54;24.06;;;24.06;;
71172;SDS011;58875;51.996;4.504;2023-05-07T14:36:20;24.60;;;24.60;;
71172;SDS011;58875;51.996;4.504;2023-05-07T14:38:46;24.73;;;24.73;;
71172;SDS011;58875;51.996;4.504;2023-05-07T14:41:13;25.42;;;25.14;;